createdAt,value
2022-08-22T00:01:59.053Z,14.27
2022-08-22T00:02:46.056Z,14.93
2022-08-22T00:02:47.466Z,12.45
2022-08-22T00:04:59.286Z,15.00
2022-08-22T00:07:54.258Z,13.40
2022-08-22T00:11:06.312Z,16.90
2022-08-22T00:14:20.014Z,11.23
2022-08-22T00:20:02.879Z,13.23
2022-08-22T00:23:14.210Z,16.73
2022-08-22T00:26:24.329Z,14.88
2022-08-22T00:29:34.836Z,11.07
2022-08-22T00:32:35.399Z,11.55
2022-08-22T00:35:47.646Z,10.02
2022-08-22T00:38:39.664Z,17.52
2022-08-22T00:41:49.445Z,9.60
2022-08-22T00:44:57.003Z,14.70
2022-08-22T00:48:08.365Z,11.35
2022-08-22T00:51:12.790Z,16.48
2022-08-22T00:54:28.619Z,14.63
2022-08-22T00:57:48.798Z,14.00
2022-08-22T01:00:43.571Z,15.25
2022-08-22T01:03:44.448Z,12.80
2022-08-22T01:06:52.509Z,13.55
2022-08-22T01:10:14.635Z,13.40
2022-08-22T01:13:10.769Z,11.32
2022-08-22T01:16:16.004Z,11.43
2022-08-22T01:19:26.819Z,12.30
2022-08-22T01:22:50.349Z,12.95
2022-08-22T01:25:45.220Z,15.68
2022-08-22T01:29:10.539Z,11.15
2022-08-22T01:32:11.540Z,10.30
2022-08-22T01:35:28.420Z,12.60
2022-08-22T01:38:23.584Z,14.95
2022-08-22T01:41:46.135Z,10.90
2022-08-22T01:44:56.600Z,9.63
2022-08-22T01:48:08.964Z,10.48
2022-08-22T01:51:04.623Z,12.10
2022-08-22T01:54:05.683Z,14.40
2022-08-22T01:56:51.484Z,13.43
2022-08-22T01:59:44.042Z,15.38
2022-08-22T02:02:50.536Z,10.48
2022-08-22T02:06:17.089Z,13.60
2022-08-22T02:09:12.858Z,9.93
2022-08-22T02:12:25.108Z,11.13
2022-08-22T02:15:35.654Z,10.02
2022-08-22T02:18:28.882Z,10.73
2022-08-22T02:21:39.531Z,12.32
2022-08-22T02:24:40.295Z,13.45
2022-08-22T02:27:58.284Z,10.38
2022-08-22T02:31:01.955Z,8.82
2022-08-22T02:34:02.311Z,3.25
2022-08-22T02:36:54.307Z,5.43
2022-08-22T02:40:04.714Z,5.60
2022-08-22T02:43:12.789Z,5.45
2022-08-22T02:46:26.129Z,5.65
2022-08-22T02:49:50.585Z,6.63
2022-08-22T02:52:46.806Z,5.53
2022-08-22T02:56:04.640Z,5.85
2022-08-22T02:59:27.285Z,7.00
2022-08-22T03:02:39.070Z,5.53
2022-08-22T03:05:36.435Z,9.13
2022-08-22T03:08:32.452Z,7.60
2022-08-22T03:11:30.007Z,11.15
2022-08-22T03:14:39.299Z,9.95
2022-08-22T03:17:33.280Z,12.23
2022-08-22T03:20:40.544Z,7.80
2022-08-22T03:23:47.626Z,12.38
2022-08-22T03:27:01.953Z,6.30
2022-08-22T03:29:53.359Z,6.57
2022-08-22T03:33:16.008Z,9.07
2022-08-22T03:36:06.916Z,10.45
2022-08-22T03:39:03.070Z,6.03
2022-08-22T03:42:12.178Z,3.92
2022-08-22T03:45:12.408Z,6.22
2022-08-22T03:48:20.448Z,5.28
2022-08-22T03:51:47.952Z,6.55
2022-08-22T03:54:37.224Z,7.10
2022-08-22T03:57:58.397Z,8.20
2022-08-22T04:01:04.609Z,11.63
2022-08-22T04:04:10.746Z,10.13
2022-08-22T04:07:31.818Z,13.00
2022-08-22T04:10:56.661Z,8.50
2022-08-22T04:14:36.523Z,8.27
2022-08-22T04:17:22.314Z,5.90
2022-08-22T04:20:46.469Z,6.97
2022-08-22T04:26:33.120Z,4.32
2022-08-22T04:29:24.944Z,3.33
2022-08-22T04:32:25.351Z,2.63
2022-08-22T04:35:36.311Z,3.72
2022-08-22T04:38:37.353Z,3.30
2022-08-22T04:42:00.650Z,2.90
2022-08-22T04:45:29.780Z,4.78
2022-08-22T04:48:21.696Z,3.92
2022-08-22T04:51:33.641Z,4.25
2022-08-22T04:54:31.232Z,3.22
2022-08-22T04:57:42.710Z,5.82
2022-08-22T05:00:42.529Z,5.70
2022-08-22T05:03:31.677Z,4.90
2022-08-22T05:06:20.976Z,4.97
2022-08-22T05:09:16.050Z,7.78
2022-08-22T05:12:14.503Z,7.30
2022-08-22T05:15:07.353Z,7.03
2022-08-22T05:18:02.760Z,6.70
2022-08-22T05:20:50.348Z,6.78
2022-08-22T05:23:35.803Z,6.32
2022-08-22T05:26:21.968Z,7.85
2022-08-22T05:29:10.848Z,14.70
2022-08-22T05:32:02.248Z,10.68
2022-08-22T05:34:51.325Z,9.90
2022-08-22T05:37:42.908Z,13.88
2022-08-22T05:40:31.313Z,7.13
2022-08-22T05:43:19.576Z,9.73
2022-08-22T05:46:09.861Z,7.68
2022-08-22T05:49:03.853Z,6.88
2022-08-22T05:52:16.861Z,8.50
2022-08-22T05:55:50.002Z,7.85
2022-08-22T05:58:44.493Z,7.73
2022-08-22T06:01:47.132Z,8.30
2022-08-22T06:04:51.934Z,7.25
2022-08-22T06:07:45.189Z,9.80
2022-08-22T06:10:48.211Z,5.90
2022-08-22T06:14:07.197Z,7.93
2022-08-22T06:17:11.759Z,12.15
2022-08-22T06:19:59.360Z,10.43
2022-08-22T06:22:51.665Z,7.88
2022-08-22T06:25:43.293Z,13.90
2022-08-22T06:28:35.525Z,8.00
2022-08-22T06:31:25.638Z,11.23
2022-08-22T06:34:17.226Z,10.45
2022-08-22T06:37:08.376Z,12.35
2022-08-22T06:39:55.513Z,8.13
2022-08-22T06:42:45.693Z,14.85
2022-08-22T06:45:32.734Z,9.50
2022-08-22T06:48:23.665Z,9.00
2022-08-22T06:51:11.025Z,6.38
2022-08-22T06:54:03.648Z,6.78
2022-08-22T06:56:52.620Z,10.95
2022-08-22T06:59:39.393Z,14.02
2022-08-22T07:02:44.028Z,16.05
2022-08-22T07:05:36.151Z,17.13
2022-08-22T07:08:24.111Z,18.85
2022-08-22T07:11:32.692Z,14.00
2022-08-22T07:14:27.291Z,18.77
2022-08-22T07:17:28.493Z,15.65
2022-08-22T07:20:26.985Z,15.98
2022-08-22T07:23:23.801Z,18.98
2022-08-22T07:26:41.326Z,13.25
2022-08-22T07:29:45.731Z,14.88
2022-08-22T07:32:53.556Z,11.82
2022-08-22T07:35:53.032Z,14.40
2022-08-22T07:38:45.496Z,17.73
2022-08-22T07:41:54.843Z,13.25
2022-08-22T07:45:14.380Z,12.43
2022-08-22T07:48:59.366Z,12.00
2022-08-22T07:52:08.122Z,13.80
2022-08-22T07:55:21.040Z,9.38
2022-08-22T08:00:54.962Z,13.25
2022-08-22T08:03:42.759Z,11.27
2022-08-22T08:06:29.271Z,16.75
2022-08-22T08:09:16.346Z,12.70
2022-08-22T08:12:05.929Z,11.50
2022-08-22T08:14:55.793Z,14.40
2022-08-22T08:17:44.173Z,9.23
2022-08-22T08:20:30.451Z,9.02
2022-08-22T08:23:23.858Z,12.10
2022-08-22T08:26:20.117Z,9.32
2022-08-22T08:29:08.259Z,9.27
2022-08-22T08:31:54.848Z,12.55
2022-08-22T08:34:43.858Z,10.07
2022-08-22T08:37:47.529Z,9.30
2022-08-22T08:40:33.348Z,10.95
2022-08-22T08:43:34.348Z,10.85
2022-08-22T08:46:38.781Z,10.45
2022-08-22T08:49:46.692Z,8.95
2022-08-22T08:52:58.612Z,9.57
2022-08-22T08:55:58.598Z,10.50
2022-08-22T08:59:10.052Z,8.90
2022-08-22T09:02:00.401Z,9.63
2022-08-22T09:05:24.528Z,9.70
2022-08-22T09:08:29.216Z,9.98
2022-08-22T09:12:10.679Z,7.50
2022-08-22T09:15:23.177Z,8.95
2022-08-22T09:18:11.558Z,6.65
2022-08-22T09:21:01.052Z,9.20
2022-08-22T09:24:10.957Z,11.75
2022-08-22T09:27:10.192Z,9.43
2022-08-22T09:30:05.030Z,9.43
2022-08-22T09:33:06.325Z,8.77
2022-08-22T09:36:12.049Z,7.25
2022-08-22T09:39:09.319Z,8.85
2022-08-22T09:42:02.788Z,7.50
2022-08-22T09:44:55.221Z,6.95
2022-08-22T09:48:07.173Z,7.07
2022-08-22T09:51:31.450Z,7.70
2022-08-22T09:54:42.968Z,10.07
2022-08-22T09:57:41.003Z,7.28
2022-08-22T10:00:54.677Z,10.90
2022-08-22T10:03:55.892Z,9.15
2022-08-22T10:06:44.053Z,11.30
2022-08-22T10:09:42.321Z,7.30
2022-08-22T10:12:49.718Z,11.43
2022-08-22T10:16:01.940Z,7.13
2022-08-22T10:18:52.863Z,7.93
2022-08-22T10:22:04.112Z,9.27
2022-08-22T10:24:58.805Z,7.38
2022-08-22T10:28:04.468Z,5.03
2022-08-22T10:30:56.135Z,7.07
2022-08-22T10:34:01.020Z,6.63
2022-08-22T10:36:53.213Z,8.20
2022-08-22T10:39:49.326Z,5.35
2022-08-22T10:43:10.905Z,6.22
2022-08-22T10:46:12.615Z,7.30
2022-08-22T10:49:07.914Z,9.75
2022-08-22T10:52:15.554Z,7.43
2022-08-22T10:55:09.871Z,4.65
2022-08-22T10:58:14.645Z,10.02
2022-08-22T11:01:37.130Z,6.90
2022-08-22T11:04:53.418Z,5.90
2022-08-22T11:07:50.191Z,5.85
2022-08-22T11:11:13.981Z,6.72
2022-08-22T11:14:32.579Z,6.18
2022-08-22T11:17:54.190Z,5.05
2022-08-22T11:20:58.929Z,6.97
2022-08-22T11:23:51.877Z,4.57
2022-08-22T11:26:50.709Z,5.47
2022-08-22T11:30:02.329Z,10.70
2022-08-22T11:33:00.790Z,7.10
2022-08-22T11:36:10.311Z,8.15
2022-08-22T11:39:23.772Z,8.23
2022-08-22T11:42:33.394Z,5.95
2022-08-22T11:45:24.949Z,5.70
2022-08-22T11:48:38.951Z,4.87
2022-08-22T11:51:41.229Z,7.18
2022-08-22T11:54:58.129Z,7.65
2022-08-22T11:57:49.262Z,6.07
2022-08-22T12:00:46.678Z,6.47
2022-08-22T12:03:59.181Z,5.75
2022-08-22T12:07:00.963Z,5.70
2022-08-22T12:09:52.011Z,7.38
2022-08-22T12:12:55.681Z,4.93
2022-08-22T12:15:44.845Z,6.65
2022-08-22T12:18:39.128Z,6.32
2022-08-22T12:22:08.175Z,7.78
2022-08-22T12:25:27.423Z,6.55
2022-08-22T12:28:35.862Z,5.95
2022-08-22T12:31:33.654Z,5.88
2022-08-22T12:34:40.438Z,8.35
2022-08-22T12:37:52.085Z,4.60
2022-08-22T12:40:57.548Z,6.45
2022-08-22T12:44:06.869Z,6.10
2022-08-22T12:47:13.110Z,5.07
2022-08-22T12:50:14.297Z,4.25
2022-08-22T12:53:20.434Z,5.57
2022-08-22T12:56:13.858Z,6.38
2022-08-22T12:58:59.602Z,7.78
2022-08-22T13:01:48.647Z,5.90
2022-08-22T13:04:42.636Z,12.23
2022-08-22T13:10:33.597Z,9.48
2022-08-22T13:13:36.552Z,11.57
2022-08-22T13:16:34.245Z,5.40
2022-08-22T13:19:29.369Z,5.78
2022-08-22T13:22:22.670Z,7.13
2022-08-22T13:25:50.709Z,9.35
2022-08-22T13:29:04.178Z,6.97
2022-08-22T13:32:00.595Z,6.03
2022-08-22T13:34:52.096Z,9.38
2022-08-22T13:37:45.786Z,7.30
2022-08-22T13:40:37.818Z,7.55
2022-08-22T13:43:30.658Z,6.38
2022-08-22T13:46:26.038Z,7.38
2022-08-22T13:49:19.149Z,5.80
2022-08-22T13:52:29.384Z,5.50
2022-08-22T13:55:54.098Z,6.93
2022-08-22T13:58:55.655Z,5.63
2022-08-22T14:02:00.874Z,5.65
2022-08-22T14:04:49.470Z,9.52
2022-08-22T14:07:50.063Z,7.07
2022-08-22T14:10:47.456Z,5.57
2022-08-22T14:13:44.072Z,6.05
2022-08-22T14:19:58.930Z,9.40
2022-08-22T14:23:04.153Z,8.15
2022-08-22T14:25:51.268Z,11.02
2022-08-22T14:28:38.040Z,9.10
2022-08-22T14:31:26.754Z,8.70
2022-08-22T14:34:15.799Z,8.02
2022-08-22T14:37:15.431Z,10.02
2022-08-22T14:40:30.115Z,21.10
2022-08-22T14:43:40.765Z,7.60
2022-08-22T14:46:37.804Z,7.03
2022-08-22T14:50:02.433Z,9.60
2022-08-22T14:53:07.756Z,11.50
2022-08-22T14:55:56.654Z,8.02
2022-08-22T14:58:51.446Z,9.40
2022-08-22T15:01:55.482Z,11.57
2022-08-22T15:04:45.918Z,6.55
2022-08-22T15:07:34.893Z,11.48
2022-08-22T15:10:31.689Z,15.40
2022-08-22T15:13:25.068Z,7.57
2022-08-22T15:16:17.605Z,9.30
2022-08-22T15:19:24.599Z,9.35
2022-08-22T15:22:27.762Z,8.98
2022-08-22T15:25:24.069Z,8.55
2022-08-22T15:28:20.822Z,10.82
2022-08-22T15:31:15.940Z,7.78
2022-08-22T15:34:13.912Z,8.57
2022-08-22T15:37:16.216Z,9.38
2022-08-22T15:40:34.427Z,7.63
2022-08-22T15:43:44.635Z,5.72
2022-08-22T15:46:37.565Z,12.57
2022-08-22T15:49:27.821Z,9.50
2022-08-22T15:52:27.530Z,8.52
2022-08-22T15:55:24.577Z,9.25
2022-08-22T15:58:20.242Z,8.68
2022-08-22T16:01:17.981Z,11.90
2022-08-22T16:04:12.549Z,10.75
2022-08-22T16:07:01.249Z,9.57
2022-08-22T16:09:50.406Z,10.77
2022-08-22T16:12:45.950Z,8.48
2022-08-22T16:15:55.759Z,9.10
2022-08-22T16:18:44.821Z,7.75
2022-08-22T16:21:30.174Z,8.88
2022-08-22T16:24:18.956Z,7.70
2022-08-22T16:27:24.133Z,7.68
2022-08-22T16:30:14.103Z,9.10
2022-08-22T16:33:00.344Z,11.00
2022-08-22T16:36:24.577Z,8.52
2022-08-22T16:39:21.921Z,10.65
2022-08-22T16:42:21.941Z,9.20
2022-08-22T16:45:31.625Z,10.75
2022-08-22T16:48:35.162Z,9.88
2022-08-22T16:51:21.492Z,8.88
2022-08-22T16:54:29.700Z,8.95
2022-08-22T16:58:05.654Z,16.08
2022-08-22T17:00:58.201Z,11.85
2022-08-22T17:04:02.762Z,10.93
2022-08-22T17:07:00.474Z,9.27
2022-08-22T17:10:11.671Z,8.80
2022-08-22T17:13:22.878Z,6.40
2022-08-22T17:16:28.378Z,12.05
2022-08-22T17:19:39.264Z,12.45
2022-08-22T17:22:57.909Z,10.65
2022-08-22T17:25:52.829Z,8.48
2022-08-22T17:28:50.784Z,9.95
2022-08-22T17:31:42.124Z,7.70
2022-08-22T17:34:44.045Z,13.13
2022-08-22T17:38:07.939Z,9.67
2022-08-22T17:41:10.219Z,7.75
2022-08-22T17:44:18.068Z,9.30
2022-08-22T17:47:17.777Z,10.48
2022-08-22T17:50:13.218Z,11.05
2022-08-22T17:53:22.259Z,10.80
2022-08-22T17:56:20.227Z,12.80
2022-08-22T17:59:20.940Z,11.48
2022-08-22T18:02:29.260Z,10.70
2022-08-22T18:05:31.990Z,11.88
2022-08-22T18:09:13.302Z,12.75
2022-08-22T18:11:56.059Z,11.80
2022-08-22T18:15:00.214Z,7.97
2022-08-22T18:18:08.162Z,8.60
2022-08-22T18:21:08.641Z,13.05
2022-08-22T18:24:00.248Z,13.50
2022-08-22T18:27:01.363Z,18.05
2022-08-22T18:30:00.035Z,11.38
2022-08-22T18:32:48.541Z,9.60
2022-08-22T18:35:49.859Z,10.90
2022-08-22T18:38:55.739Z,11.85
2022-08-22T18:41:51.085Z,13.32
2022-08-22T18:44:40.070Z,12.23
2022-08-22T18:47:33.843Z,12.68
2022-08-22T18:50:36.430Z,11.43
2022-08-22T18:53:46.107Z,12.02
2022-08-22T18:56:38.938Z,7.70
2022-08-22T18:59:32.726Z,9.38
2022-08-22T19:02:21.283Z,11.05
2022-08-22T19:05:10.564Z,12.00
2022-08-22T19:08:17.553Z,15.90
2022-08-22T19:11:36.991Z,13.98
2022-08-22T19:14:49.136Z,14.10
2022-08-22T19:17:55.441Z,13.98
2022-08-22T19:21:35.706Z,7.70
2022-08-22T19:24:26.166Z,14.32
2022-08-22T19:27:25.185Z,11.82
2022-08-22T19:30:42.427Z,13.60
2022-08-22T19:33:39.797Z,14.80
2022-08-22T19:36:33.469Z,12.32
2022-08-22T19:39:41.356Z,11.98
2022-08-22T19:42:49.962Z,12.38
2022-08-22T19:45:40.232Z,8.75
2022-08-22T19:48:31.447Z,14.50
2022-08-22T19:51:20.359Z,11.52
2022-08-22T19:54:23.558Z,9.02
2022-08-22T19:57:38.530Z,10.75
2022-08-22T20:00:53.491Z,13.77
2022-08-22T20:04:43.580Z,14.52
2022-08-22T20:07:32.303Z,10.23
2022-08-22T20:10:26.792Z,14.90
2022-08-22T20:13:39.058Z,8.25
2022-08-22T20:16:57.249Z,10.80
2022-08-22T20:23:16.789Z,12.65
2022-08-22T20:26:03.533Z,13.70
2022-08-22T20:28:52.410Z,10.90
2022-08-22T20:31:38.597Z,12.63
2022-08-22T20:34:28.631Z,12.48
2022-08-22T20:37:32.478Z,12.10
2022-08-22T20:40:56.944Z,11.70
2022-08-22T20:44:12.727Z,11.95
2022-08-22T20:47:04.558Z,9.10
2022-08-22T20:49:55.199Z,11.57
2022-08-22T20:52:54.233Z,12.45
2022-08-22T20:55:54.532Z,13.27
2022-08-22T20:58:40.575Z,13.70
2022-08-22T21:01:28.192Z,12.73
2022-08-22T21:04:18.662Z,12.07
2022-08-22T21:07:04.300Z,16.02
2022-08-22T21:10:22.283Z,18.33
2022-08-22T21:13:11.845Z,15.00
2022-08-22T21:16:14.389Z,12.68
2022-08-22T21:19:01.761Z,15.20
2022-08-22T21:21:47.971Z,16.58
2022-08-22T21:24:36.707Z,15.95
2022-08-22T21:27:30.663Z,17.15
2022-08-22T21:30:25.593Z,13.57
2022-08-22T21:33:23.743Z,13.82
2022-08-22T21:36:12.019Z,15.43
2022-08-22T21:39:12.633Z,20.50
2022-08-22T21:42:01.324Z,11.55
2022-08-22T21:45:03.709Z,13.30
2022-08-22T21:47:49.666Z,16.05
2022-08-22T21:50:38.187Z,15.00
2022-08-22T21:53:28.708Z,14.50
2022-08-22T21:56:27.047Z,16.42
2022-08-22T21:59:58.652Z,15.10
2022-08-22T22:02:43.793Z,18.65
2022-08-22T22:05:29.750Z,17.38
2022-08-22T22:08:16.532Z,14.90
2022-08-22T22:11:08.515Z,15.88
2022-08-22T22:13:54.255Z,15.27
2022-08-22T22:16:39.816Z,10.38
2022-08-22T22:19:25.433Z,13.07
2022-08-22T22:22:11.263Z,15.63
2022-08-22T22:24:56.750Z,13.27
2022-08-22T22:27:51.081Z,15.38
2022-08-22T22:30:38.024Z,13.02
2022-08-22T22:33:27.425Z,19.63
2022-08-22T22:36:18.382Z,12.27
2022-08-22T22:39:06.089Z,15.45
2022-08-22T22:41:51.834Z,13.70
2022-08-22T22:44:37.538Z,19.63
2022-08-22T22:47:30.994Z,15.73
2022-08-22T22:50:16.683Z,17.13
2022-08-22T22:53:02.423Z,12.25
2022-08-22T22:55:59.947Z,16.92
2022-08-22T22:58:47.428Z,18.83
2022-08-22T23:01:33.345Z,14.52
2022-08-22T23:04:19.067Z,14.38
2022-08-22T23:07:06.481Z,18.75
2022-08-22T23:09:54.550Z,16.90
2022-08-22T23:12:42.370Z,15.65
2022-08-22T23:15:28.481Z,17.05
2022-08-22T23:18:14.072Z,14.35
2022-08-22T23:21:13.374Z,14.40
2022-08-22T23:24:00.918Z,15.95
2022-08-22T23:26:46.824Z,16.92
2022-08-22T23:29:32.409Z,18.55
2022-08-22T23:32:18.506Z,17.17
2022-08-22T23:35:05.329Z,17.15
2022-08-22T23:37:50.941Z,17.05
2022-08-22T23:40:36.604Z,12.90
2022-08-22T23:43:22.890Z,13.43
2022-08-22T23:46:08.360Z,16.92
2022-08-22T23:48:54.429Z,17.17
2022-08-22T23:51:41.537Z,16.98
2022-08-22T23:54:27.629Z,12.23
2022-08-22T23:57:13.686Z,15.85
